Time;durP1;ratioP1;P1;durP2;ratioP2;P2;SDS_P1;SDS_P2;PMS_P1;PMS_P2;Temp;Humidity;BMP_temperature;BMP_pressure;BME280_temperature;BME280_humidity;BME280_pressure;Samples;Min_cycle;Max_cycle;Signal;HPM_P1;HPM_P2
2021/04/20 00:01:12;;;;;;;5.57;3.80;;;11.20;99.90;;;;;;4999828;28;20449;-52
2021/04/20 00:03:39;;;;;;;16.03;4.40;;;11.10;99.90;;;;;;4999646;28;20445;-53
2021/04/20 00:06:07;;;;;;;5.63;3.80;;;11.10;99.90;;;;;;4999880;28;20915;-52
2021/04/20 00:08:35;;;;;;;7.80;4.93;;;11.10;99.90;;;;;;4999829;28;20458;-56
2021/04/20 00:11:01;;;;;;;9.63;3.37;;;11.10;99.90;;;;;;4999917;28;20441;-54
2021/04/20 00:13:28;;;;;;;6.40;4.30;;;11.00;99.90;;;;;;4999460;28;20461;-55
2021/04/20 00:15:55;;;;;;;17.50;4.80;;;11.00;99.90;;;;;;4999980;28;20848;-55
2021/04/20 00:18:21;;;;;;;6.43;4.00;;;11.00;99.90;;;;;;5000181;28;20430;-55
2021/04/20 00:20:48;;;;;;;5.47;3.60;;;11.00;99.90;;;;;;5000070;28;20434;-53
2021/04/20 00:23:14;;;;;;;7.10;4.33;;;10.90;99.90;;;;;;5000448;28;20524;-52
2021/04/20 00:25:40;;;;;;;4.10;3.40;;;10.90;99.90;;;;;;5001002;28;20467;-49
2021/04/20 00:28:08;;;;;;;4.90;3.77;;;10.90;99.90;;;;;;5000878;28;20469;-48
2021/04/20 00:30:35;;;;;;;8.23;4.17;;;10.90;99.90;;;;;;5000493;28;20453;-53
2021/04/20 00:33:02;;;;;;;8.90;4.10;;;10.80;99.90;;;;;;4999819;28;20799;-53
2021/04/20 00:35:28;;;;;;;8.10;3.77;;;10.80;99.90;;;;;;4999112;28;20592;-55
2021/04/20 00:37:54;;;;;;;10.13;4.00;;;10.80;99.90;;;;;;4999486;28;20453;-55
2021/04/20 00:40:21;;;;;;;12.37;4.03;;;10.80;99.90;;;;;;4999774;28;20478;-52
2021/04/20 00:42:49;;;;;;;13.23;4.80;;;10.80;99.90;;;;;;4999505;28;20446;-51
2021/04/20 00:45:17;;;;;;;15.00;4.27;;;10.80;99.90;;;;;;4999527;28;20464;-54
2021/04/20 00:47:43;;;;;;;14.47;4.30;;;10.70;99.90;;;;;;4991688;28;20442;-55
2021/04/20 00:50:12;;;;;;;7.30;4.73;;;10.70;99.90;;;;;;4999184;28;20934;-54
2021/04/20 00:52:39;;;;;;;9.60;3.77;;;10.70;99.90;;;;;;4998001;28;20926;-53
2021/04/20 00:55:07;;;;;;;5.67;3.50;;;10.70;99.90;;;;;;4999557;28;20458;-53
2021/04/20 00:57:33;;;;;;;9.77;4.73;;;10.60;99.90;;;;;;4999368;28;20481;-54
2021/04/20 00:59:59;;;;;;;5.50;3.77;;;10.60;99.90;;;;;;4998994;28;20918;-52
2021/04/20 01:02:26;;;;;;;9.80;3.57;;;10.60;99.90;;;;;;4999908;28;20513;-53
2021/04/20 01:04:53;;;;;;;8.00;4.10;;;10.60;99.90;;;;;;4999683;28;20453;-53
2021/04/20 01:07:20;;;;;;;7.10;3.90;;;10.50;99.90;;;;;;4999299;28;20457;-54
2021/04/20 01:09:48;;;;;;;13.30;4.40;;;10.60;99.90;;;;;;4998738;28;21049;-53
2021/04/20 01:12:15;;;;;;;7.40;4.20;;;10.60;99.90;;;;;;4998581;28;20460;-54
2021/04/20 01:14:41;;;;;;;8.80;4.50;;;10.60;99.90;;;;;;4999099;28;20453;-56
2021/04/20 01:17:07;;;;;;;8.73;3.43;;;10.60;99.90;;;;;;4998837;28;20581;-56
2021/04/20 01:19:34;;;;;;;12.97;4.70;;;10.50;99.90;;;;;;4999158;28;20446;-54
2021/04/20 01:22:01;;;;;;;10.30;4.37;;;10.50;99.90;;;;;;4999544;28;20890;-55
2021/04/20 01:24:29;;;;;;;5.70;3.53;;;10.50;99.90;;;;;;4998928;28;20465;-54
2021/04/20 01:26:57;;;;;;;10.13;4.13;;;10.40;99.90;;;;;;4998976;28;20438;-54
2021/04/20 01:29:24;;;;;;;10.90;4.70;;;10.40;99.90;;;;;;4998769;28;20450;-55
2021/04/20 01:31:51;;;;;;;7.33;3.30;;;10.40;99.90;;;;;;4998971;28;20528;-51
2021/04/20 01:34:18;;;;;;;5.30;3.70;;;10.30;99.90;;;;;;4998886;28;20457;-50
2021/04/20 01:36:44;;;;;;;8.80;6.07;;;10.30;99.90;;;;;;4998862;28;20485;-56
2021/04/20 01:39:13;;;;;;;8.30;4.53;;;10.20;99.90;;;;;;4998560;28;20481;-53
2021/04/20 01:41:42;;;;;;;8.53;4.33;;;10.20;99.90;;;;;;4998418;28;20771;-54
2021/04/20 01:44:08;;;;;;;6.93;3.90;;;10.20;99.90;;;;;;4998238;28;20508;-54
2021/04/20 01:46:35;;;;;;;7.40;3.77;;;10.10;99.90;;;;;;4998871;28;20438;-54
2021/04/20 01:49:03;;;;;;;7.70;4.50;;;10.10;99.90;;;;;;4998665;28;20446;-55
2021/04/20 01:51:30;;;;;;;12.50;4.80;;;10.10;99.90;;;;;;4998922;28;20472;-54
2021/04/20 01:53:57;;;;;;;8.80;4.30;;;10.10;99.90;;;;;;4998255;28;20937;-49
2021/04/20 01:56:25;;;;;;;6.33;5.00;;;10.20;99.90;;;;;;4998467;28;20485;-53
2021/04/20 01:58:52;;;;;;;6.87;4.70;;;10.20;99.90;;;;;;4998556;28;20457;-50
2021/04/20 02:01:21;;;;;;;8.87;4.50;;;10.20;99.90;;;;;;4998745;28;20790;-49
2021/04/20 02:03:51;;;;;;;7.63;4.97;;;10.10;99.90;;;;;;4998130;28;20950;-54
2021/04/20 02:06:18;;;;;;;6.03;4.37;;;10.20;99.90;;;;;;4998704;28;20446;-51
2021/04/20 02:08:47;;;;;;;7.53;5.17;;;10.10;99.90;;;;;;4998212;28;20449;-53
2021/04/20 02:11:16;;;;;;;10.13;4.60;;;10.10;99.90;;;;;;4998676;28;20450;-48
2021/04/20 02:13:43;;;;;;;7.90;4.70;;;10.10;99.90;;;;;;4990215;28;20485;-53
2021/04/20 02:16:10;;;;;;;11.43;3.87;;;10.10;99.90;;;;;;4998782;28;20567;-55
2021/04/20 02:18:40;;;;;;;7.07;4.27;;;10.00;99.90;;;;;;4998912;28;20918;-54
2021/04/20 02:21:07;;;;;;;8.30;4.10;;;10.00;99.90;;;;;;4998285;28;20453;-50
2021/04/20 02:23:35;;;;;;;6.27;4.10;;;10.00;99.90;;;;;;4998978;28;20442;-53
2021/04/20 02:26:04;;;;;;;7.00;4.90;;;10.00;99.90;;;;;;4998708;28;20974;-53
2021/04/20 02:28:31;;;;;;;8.80;4.40;;;10.00;99.90;;;;;;4999146;28;20446;-50
2021/04/20 02:31:00;;;;;;;9.90;4.70;;;9.90;99.90;;;;;;4998693;28;20501;-48
2021/04/20 02:33:28;;;;;;;9.57;4.63;;;9.90;99.90;;;;;;4999114;28;20446;-50
2021/04/20 02:35:56;;;;;;;18.30;5.03;;;9.90;99.90;;;;;;4999049;28;20515;-52
2021/04/20 02:38:22;;;;;;;8.70;4.73;;;9.90;99.90;;;;;;4998769;28;20462;-54
2021/04/20 02:40:53;;;;;;;6.10;3.93;;;9.80;99.90;;;;;;4998988;28;20449;-54
2021/04/20 02:43:20;;;;;;;10.17;4.73;;;9.80;99.90;;;;;;4998170;28;20438;-53
2021/04/20 02:45:48;;;;;;;9.80;4.50;;;9.70;99.90;;;;;;4998213;28;20442;-54
2021/04/20 02:48:15;;;;;;;16.00;4.80;;;9.70;99.90;;;;;;4997081;28;20950;-50
2021/04/20 02:50:44;;;;;;;5.97;4.10;;;9.70;99.90;;;;;;4997588;28;20450;-55
2021/04/20 02:53:11;;;;;;;19.23;4.53;;;9.60;99.90;;;;;;4998558;28;20453;-50
2021/04/20 02:55:37;;;;;;;8.50;4.03;;;9.70;99.90;;;;;;4998510;28;20914;-55
2021/04/20 02:58:11;;;;;;;10.97;5.80;;;9.60;99.90;;;;;;4998765;28;20461;-53
2021/04/20 03:00:43;;;;;;;7.63;5.07;;;9.60;99.90;;;;;;4998834;28;20871;-56
2021/04/20 03:03:10;;;;;;;9.07;6.10;;;9.50;99.90;;;;;;4998323;28;20465;-53
2021/04/20 03:05:36;;;;;;;17.57;5.97;;;9.50;99.90;;;;;;4997539;28;20497;-52
2021/04/20 03:08:06;;;;;;;7.70;4.40;;;9.50;99.90;;;;;;4998636;28;20442;-53
2021/04/20 03:10:33;;;;;;;22.03;4.80;;;9.40;99.90;;;;;;4998702;28;20460;-49
2021/04/20 03:13:03;;;;;;;15.73;5.50;;;9.40;99.90;;;;;;4999195;28;20544;-49
2021/04/20 03:15:30;;;;;;;7.63;5.17;;;9.40;99.90;;;;;;4998652;28;20454;-48
2021/04/20 03:17:57;;;;;;;9.60;4.70;;;9.40;99.90;;;;;;5003329;28;20478;-49
2021/04/20 03:20:23;;;;;;;11.53;5.23;;;9.40;99.90;;;;;;5004487;28;20844;-49
2021/04/20 03:22:50;;;;;;;11.60;5.53;;;9.30;99.90;;;;;;4988227;28;20792;-53
2021/04/20 03:25:25;;;;;;;9.20;5.60;;;9.30;99.90;;;;;;4990829;28;20446;-53
2021/04/20 03:27:53;;;;;;;11.07;5.17;;;9.30;99.90;;;;;;4988218;28;20441;-50
2021/04/20 03:30:24;;;;;;;7.77;5.47;;;9.30;99.90;;;;;;4989745;28;20442;-55
2021/04/20 03:33:05;;;;;;;15.60;5.33;;;9.20;99.90;;;;;;4989652;28;20521;-50
2021/04/20 03:35:37;;;;;;;12.70;5.80;;;9.20;99.90;;;;;;4990903;28;20443;-55
2021/04/20 03:38:10;;;;;;;11.03;5.43;;;9.20;99.90;;;;;;4987274;28;20423;-50
2021/04/20 03:40:42;;;;;;;9.90;5.47;;;9.20;99.90;;;;;;4980723;28;20474;-53
2021/04/20 03:43:15;;;;;;;17.73;5.93;;;9.20;99.90;;;;;;4976981;28;20516;-52
2021/04/20 03:45:46;;;;;;;10.17;5.80;;;9.20;99.90;;;;;;4975590;28;20765;-49
2021/04/20 03:48:16;;;;;;;9.17;5.17;;;9.20;99.90;;;;;;4979724;28;20935;-53
2021/04/20 03:50:52;;;;;;;11.33;4.70;;;9.20;99.90;;;;;;4981835;28;20447;-55
2021/04/20 03:53:20;;;;;;;9.17;5.83;;;9.20;99.90;;;;;;4984769;28;20438;-52
2021/04/20 03:55:49;;;;;;;7.40;5.57;;;9.10;99.90;;;;;;4979830;28;20808;-54
2021/04/20 03:58:18;;;;;;;7.47;4.50;;;9.10;99.90;;;;;;4978094;28;20816;-51
2021/04/20 04:00:44;;;;;;;10.33;4.70;;;9.10;99.90;;;;;;4981134;28;20454;-54
2021/04/20 04:03:12;;;;;;;6.13;4.70;;;9.00;99.90;;;;;;4975462;28;20547;-52
2021/04/20 04:05:40;;;;;;;13.10;4.30;;;9.00;99.90;;;;;;4975911;28;20451;-55
2021/04/20 04:08:08;;;;;;;10.47;5.90;;;9.00;99.90;;;;;;4978232;28;20438;-53
2021/04/20 04:10:36;;;;;;;10.97;5.40;;;9.00;99.90;;;;;;4978329;28;20451;-54
2021/04/20 04:13:06;;;;;;;13.53;5.60;;;9.00;99.90;;;;;;4978294;28;20479;-53
2021/04/20 04:15:34;;;;;;;8.93;5.23;;;8.90;99.90;;;;;;4990316;28;20532;-50
2021/04/20 04:18:04;;;;;;;13.80;5.87;;;9.00;99.90;;;;;;4990833;28;20478;-51
2021/04/20 04:20:30;;;;;;;8.80;5.07;;;8.90;99.90;;;;;;4990148;28;20458;-52
2021/04/20 04:23:04;;;;;;;9.60;5.67;;;8.90;99.90;;;;;;4990004;28;20457;-52
2021/04/20 04:25:34;;;;;;;7.70;5.50;;;8.90;99.90;;;;;;4992476;28;20507;-50
2021/04/20 04:28:04;;;;;;;14.57;6.50;;;8.90;99.90;;;;;;4990239;28;20455;-48
2021/04/20 04:30:31;;;;;;;9.90;7.30;;;8.90;99.90;;;;;;4990018;28;20450;-55
2021/04/20 04:32:57;;;;;;;12.40;5.27;;;8.90;99.90;;;;;;4988891;28;20475;-56
2021/04/20 04:35:26;;;;;;;12.50;6.00;;;8.80;99.90;;;;;;4985438;28;20475;-53
2021/04/20 04:37:53;;;;;;;10.00;6.03;;;8.80;99.90;;;;;;4981566;28;20944;-51
2021/04/20 04:40:24;;;;;;;14.63;6.07;;;8.80;99.90;;;;;;4981607;28;20471;-55
2021/04/20 04:42:50;;;;;;;10.60;6.00;;;8.90;99.90;;;;;;4982784;28;20447;-52
2021/04/20 04:45:20;;;;;;;12.57;6.20;;;8.90;99.90;;;;;;4981977;28;20462;-55
2021/04/20 04:47:46;;;;;;;13.73;7.37;;;8.80;99.90;;;;;;4982214;28;20443;-51
2021/04/20 04:50:13;;;;;;;9.07;5.20;;;8.80;99.90;;;;;;4981494;28;20928;-52
2021/04/20 04:52:40;;;;;;;10.47;5.30;;;8.70;99.90;;;;;;4981571;28;20814;-54
2021/04/20 04:55:08;;;;;;;10.40;5.63;;;8.70;99.90;;;;;;4981594;28;20458;-55
2021/04/20 04:57:35;;;;;;;15.07;6.10;;;8.60;99.90;;;;;;4981125;28;20487;-53
2021/04/20 05:00:04;;;;;;;13.60;5.70;;;8.60;99.90;;;;;;4980714;28;20920;-53
2021/04/20 05:02:33;;;;;;;9.30;5.07;;;8.60;99.90;;;;;;4981067;28;20517;-53
2021/04/20 05:05:04;;;;;;;17.40;6.63;;;8.60;99.90;;;;;;4981212;28;20450;-53
2021/04/20 05:07:30;;;;;;;14.30;7.43;;;8.60;99.90;;;;;;4978505;28;20439;-52
2021/04/20 05:10:00;;;;;;;12.67;5.83;;;8.60;99.90;;;;;;4980611;28;20458;-54
2021/04/20 05:12:26;;;;;;;12.50;6.33;;;8.60;99.90;;;;;;4980896;28;20462;-53
2021/04/20 05:14:53;;;;;;;15.07;6.40;;;8.60;99.90;;;;;;4981480;28;20479;-49
2021/04/20 05:17:21;;;;;;;11.70;6.47;;;9.00;99.90;;;;;;4980882;28;20483;-51
2021/04/20 05:19:51;;;;;;;14.63;6.70;;;9.10;99.90;;;;;;4980846;28;20478;-50
2021/04/20 05:22:17;;;;;;;16.40;6.90;;;9.00;99.90;;;;;;4980228;28;20522;-55
2021/04/20 05:24:44;;;;;;;13.70;5.80;;;9.00;99.90;;;;;;4976223;28;20447;-53
2021/04/20 05:27:11;;;;;;;14.07;8.13;;;8.90;99.90;;;;;;4983043;28;20436;-51
2021/04/20 05:29:40;;;;;;;13.50;6.27;;;8.80;99.90;;;;;;4989291;28;20435;-53
2021/04/20 05:32:07;;;;;;;8.90;6.73;;;8.80;99.90;;;;;;4983474;28;20478;-54
2021/04/20 05:34:34;;;;;;;13.80;6.80;;;8.90;99.90;;;;;;4988635;28;20443;-51
2021/04/20 05:37:01;;;;;;;11.10;5.13;;;8.90;99.90;;;;;;4988093;28;20475;-52
2021/04/20 05:39:27;;;;;;;16.87;5.60;;;8.90;99.90;;;;;;4988344;28;20566;-50
2021/04/20 05:41:54;;;;;;;17.70;7.20;;;8.90;99.90;;;;;;4988850;28;20455;-54
2021/04/20 05:44:20;;;;;;;11.30;6.20;;;8.90;99.90;;;;;;4983478;28;20494;-54
2021/04/20 05:46:47;;;;;;;13.63;6.73;;;9.00;99.90;;;;;;4980729;28;20446;-51
2021/04/20 05:49:14;;;;;;;10.50;6.13;;;9.00;99.90;;;;;;4979985;28;20450;-53
2021/04/20 05:51:41;;;;;;;12.90;5.80;;;9.00;99.90;;;;;;4980019;28;20439;-56
2021/04/20 05:54:09;;;;;;;25.40;6.63;;;9.10;99.90;;;;;;4979269;28;20451;-48
2021/04/20 05:56:36;;;;;;;15.70;8.33;;;9.30;99.90;;;;;;4979812;28;20497;-53
2021/04/20 05:59:04;;;;;;;18.47;7.00;;;9.20;99.90;;;;;;4980484;28;21151;-54
2021/04/20 06:01:34;;;;;;;18.40;7.30;;;9.30;99.90;;;;;;4980125;28;20447;-52
2021/04/20 06:04:03;;;;;;;15.83;6.87;;;9.70;99.90;;;;;;4980512;28;20475;-51
2021/04/20 06:06:30;;;;;;;12.03;5.97;;;10.00;99.90;;;;;;4980385;28;20446;-53
2021/04/20 06:08:57;;;;;;;14.70;7.03;;;10.10;99.90;;;;;;4978992;28;20454;-55
2021/04/20 06:11:24;;;;;;;13.30;6.70;;;10.30;99.90;;;;;;4979802;28;20447;-53
2021/04/20 06:13:53;;;;;;;11.93;7.20;;;10.20;99.90;;;;;;4979289;28;20443;-50
2021/04/20 06:16:19;;;;;;;10.87;6.20;;;10.20;99.90;;;;;;4978756;28;21029;-51
2021/04/20 06:18:45;;;;;;;15.60;7.47;;;10.10;99.90;;;;;;4979014;28;20451;-55
2021/04/20 06:21:13;;;;;;;15.67;6.87;;;10.10;99.90;;;;;;4979199;28;20451;-55
2021/04/20 06:23:40;;;;;;;17.07;7.80;;;10.00;99.90;;;;;;4978690;28;20458;-54
2021/04/20 06:26:07;;;;;;;18.73;7.60;;;10.10;99.90;;;;;;4977386;28;20435;-50
2021/04/20 06:28:37;;;;;;;11.20;7.07;;;10.10;99.90;;;;;;4980828;28;20513;-54
2021/04/20 06:31:04;;;;;;;10.53;7.40;;;10.10;99.90;;;;;;4978527;28;20521;-53
2021/04/20 06:33:32;;;;;;;9.80;7.57;;;10.10;99.90;;;;;;4973853;28;20463;-55
2021/04/20 06:36:01;;;;;;;7.93;6.30;;;10.10;99.90;;;;;;4978683;28;20537;-53
2021/04/20 06:38:28;;;;;;;17.67;6.67;;;10.20;99.90;;;;;;4976733;28;20924;-50
2021/04/20 06:40:57;;;;;;;16.87;8.10;;;10.20;99.90;;;;;;4995399;28;20458;-53
2021/04/20 06:43:28;;;;;;;19.23;7.93;;;10.20;99.90;;;;;;4993884;28;20460;-51
2021/04/20 06:45:59;;;;;;;21.80;8.67;;;10.20;99.90;;;;;;4988709;28;20474;-52
2021/04/20 06:48:36;;;;;;;15.63;7.77;;;10.20;99.90;;;;;;4994499;28;20462;-52
2021/04/20 06:51:09;;;;;;;11.40;6.87;;;10.30;99.90;;;;;;4993773;28;20555;-50
2021/04/20 06:53:39;;;;;;;12.77;8.07;;;10.40;99.90;;;;;;4992564;28;20815;-53
2021/04/20 06:56:31;;;;;;;11.80;6.53;;;10.40;99.90;;;;;;4991496;28;20454;-53
2021/04/20 06:59:08;;;;;;;15.90;7.30;;;10.50;99.90;;;;;;4992059;28;20465;-49
2021/04/20 07:01:38;;;;;;;15.87;7.90;;;10.50;99.90;;;;;;5001089;28;20859;-50
2021/04/20 07:04:12;;;;;;;19.00;7.07;;;10.60;99.90;;;;;;4998884;28;20449;-48
2021/04/20 07:07:00;;;;;;;18.30;8.23;;;10.70;99.90;;;;;;5001498;28;20545;-55
2021/04/20 07:09:30;;;;;;;13.70;7.50;;;10.80;99.90;;;;;;5001617;28;20477;-57
2021/04/20 07:11:58;;;;;;;15.60;8.57;;;10.90;99.90;;;;;;5001045;28;20484;-49
2021/04/20 07:14:32;;;;;;;19.07;9.13;;;11.10;99.90;;;;;;4999175;28;20473;-54
2021/04/20 07:17:41;;;;;;;14.47;9.10;;;11.20;99.90;;;;;;4999783;28;20509;-53
2021/04/20 07:20:25;;;;;;;16.00;10.10;;;11.30;99.90;;;;;;4998680;28;21001;-52
2021/04/20 07:23:41;;;;;;;18.60;8.50;;;11.40;99.90;;;;;;5001086;28;20527;-50
2021/04/20 07:26:22;;;;;;;14.03;7.40;;;11.60;99.90;;;;;;4939077;29;20790;-49
2021/04/20 07:29:05;;;;;;;13.13;8.73;;;11.60;99.90;;;;;;4995229;28;20449;-52
2021/04/20 07:31:41;;;;;;;22.30;8.37;;;11.80;99.90;;;;;;4996327;28;20569;-51
2021/04/20 07:34:21;;;;;;;15.83;8.37;;;11.80;99.90;;;;;;4999665;28;20449;-48
2021/04/20 07:37:07;;;;;;;13.90;8.10;;;11.90;99.90;;;;;;5000420;28;20488;-47
2021/04/20 07:39:41;;;;;;;12.50;7.87;;;12.00;99.90;;;;;;5000046;28;20591;-53
2021/04/20 07:42:16;;;;;;;18.43;8.40;;;12.20;99.90;;;;;;5000614;28;20456;-50
2021/04/20 07:44:54;;;;;;;14.47;7.90;;;12.40;99.90;;;;;;5000423;28;20449;-50
2021/04/20 07:47:23;;;;;;;16.60;8.80;;;12.50;99.90;;;;;;5000205;28;20441;-51
2021/04/20 07:49:59;;;;;;;18.80;9.17;;;12.60;99.90;;;;;;5000310;28;20457;-48
2021/04/20 07:52:32;;;;;;;12.40;9.00;;;12.80;99.90;;;;;;5000072;28;20833;-54
2021/04/20 07:55:05;;;;;;;16.73;9.17;;;13.00;99.90;;;;;;5000086;28;20465;-52
2021/04/20 07:57:36;;;;;;;11.43;7.50;;;13.80;99.90;;;;;;4999410;28;20485;-55
2021/04/20 08:00:09;;;;;;;14.70;8.10;;;15.40;99.90;;;;;;4999138;28;20454;-51
2021/04/20 08:02:45;;;;;;;11.10;7.33;;;17.50;99.90;;;;;;4997872;28;20457;-49
2021/04/20 08:05:19;;;;;;;13.80;8.20;;;19.40;99.90;;;;;;4997917;28;20842;-52
2021/04/20 08:07:54;;;;;;;12.17;7.73;;;21.30;92.60;;;;;;4997379;28;20453;-51
2021/04/20 08:10:25;;;;;;;14.47;8.07;;;22.60;81.00;;;;;;4997106;28;20906;-51
2021/04/20 08:12:57;;;;;;;13.80;8.93;;;23.40;71.80;;;;;;4997144;28;20790;-51
2021/04/20 08:15:34;;;;;;;13.27;9.30;;;24.70;64.50;;;;;;4996975;28;20511;-48
2021/04/20 08:18:06;;;;;;;16.73;9.20;;;25.90;58.90;;;;;;4996594;28;20961;-49
2021/04/20 08:20:36;;;;;;;12.23;7.50;;;26.40;54.00;;;;;;4996675;28;20434;-52
2021/04/20 08:23:05;;;;;;;10.63;7.20;;;26.40;52.50;;;;;;4996433;28;20965;-52
2021/04/20 08:25:38;;;;;;;11.80;8.83;;;26.70;51.70;;;;;;4996474;28;20958;-51
2021/04/20 08:28:15;;;;;;;11.93;8.97;;;27.10;49.20;;;;;;4996500;28;20496;-51
2021/04/20 08:30:47;;;;;;;10.10;8.23;;;26.80;48.50;;;;;;4996470;28;20860;-53
2021/04/20 08:33:17;;;;;;;17.80;8.97;;;26.50;48.30;;;;;;4996709;28;20454;-51
2021/04/20 08:35:49;;;;;;;10.30;8.97;;;26.30;48.70;;;;;;4996697;28;20463;-52
2021/04/20 08:38:36;;;;;;;12.43;8.20;;;26.40;49.00;;;;;;4996195;28;20496;-52
2021/04/20 08:41:08;;;;;;;11.10;6.83;;;26.40;47.90;;;;;;4996404;28;20446;-51
2021/04/20 08:43:45;;;;;;;9.47;8.23;;;26.40;48.30;;;;;;4996201;28;20458;-52
2021/04/20 08:46:23;;;;;;;14.80;9.30;;;26.50;48.40;;;;;;4996375;28;20446;-49
2021/04/20 08:48:58;;;;;;;9.90;8.00;;;26.60;48.30;;;;;;4996161;28;21001;-48
2021/04/20 08:51:31;;;;;;;12.70;8.27;;;26.60;47.80;;;;;;4996078;28;20437;-50
2021/04/20 08:54:26;;;;;;;10.37;8.20;;;26.60;47.10;;;;;;4996366;28;20450;-51
2021/04/20 08:57:02;;;;;;;10.50;7.27;;;26.50;48.00;;;;;;4995908;28;20446;-53
2021/04/20 08:59:51;;;;;;;13.13;7.37;;;26.20;47.80;;;;;;4996173;28;20457;-55
2021/04/20 09:02:54;;;;;;;13.03;9.57;;;26.20;47.80;;;;;;4996036;28;20454;-52
2021/04/20 09:05:25;;;;;;;12.33;7.30;;;26.30;47.20;;;;;;4930069;29;20490;-51
2021/04/20 09:08:00;;;;;;;15.17;8.40;;;26.30;47.00;;;;;;4935840;29;20485;-51
2021/04/20 09:10:34;;;;;;;18.00;8.27;;;26.20;47.50;;;;;;4969171;28;20480;-51
2021/04/20 09:13:08;;;;;;;15.33;9.03;;;26.30;47.40;;;;;;4995388;28;20532;-51
2021/04/20 09:15:38;;;;;;;11.30;8.03;;;26.30;47.00;;;;;;4995942;28;20741;-51
2021/04/20 09:18:06;;;;;;;11.73;8.27;;;26.30;47.10;;;;;;4995549;28;20794;-47
2021/04/20 09:20:40;;;;;;;16.10;9.00;;;26.60;47.20;;;;;;4995412;28;20450;-50
2021/04/20 09:23:22;;;;;;;14.60;7.03;;;26.70;46.60;;;;;;4995952;28;20486;-50
2021/04/20 09:25:54;;;;;;;11.70;7.77;;;27.00;46.20;;;;;;4995755;28;20450;-52
2021/04/20 09:28:27;;;;;;;10.57;7.90;;;26.80;46.30;;;;;;4995499;28;20485;-54
2021/04/20 09:30:55;;;;;;;17.70;8.27;;;26.70;45.80;;;;;;4996174;28;20454;-49
2021/04/20 09:33:27;;;;;;;12.60;8.07;;;26.70;46.20;;;;;;4995885;28;20541;-51
2021/04/20 09:35:55;;;;;;;13.73;8.83;;;26.60;46.10;;;;;;4995658;28;20454;-51
2021/04/20 09:38:24;;;;;;;10.40;8.10;;;26.60;45.70;;;;;;4995578;28;20446;-49
2021/04/20 09:40:52;;;;;;;15.03;8.00;;;26.50;46.30;;;;;;4995614;28;20512;-53
2021/04/20 09:43:29;;;;;;;11.30;7.77;;;26.50;45.80;;;;;;4995400;28;20488;-53
2021/04/20 09:46:01;;;;;;;8.80;7.90;;;26.40;46.20;;;;;;4995982;28;20442;-53
2021/04/20 09:48:36;;;;;;;17.53;9.23;;;26.20;46.60;;;;;;4995566;28;20486;-52
2021/04/20 09:51:10;;;;;;;21.37;8.10;;;25.90;46.90;;;;;;4995626;28;20458;-53
2021/04/20 09:53:48;;;;;;;9.70;7.70;;;25.70;47.00;;;;;;4995384;28;20922;-52
2021/04/20 09:56:30;;;;;;;19.10;8.00;;;25.60;46.70;;;;;;4995372;28;20538;-51
2021/04/20 09:58:56;;;;;;;10.70;7.70;;;25.60;46.70;;;;;;4995361;28;20441;-53
2021/04/20 10:01:35;;;;;;;16.57;10.20;;;25.80;46.20;;;;;;4995431;28;20446;-54
2021/04/20 10:04:07;;;;;;;14.10;8.63;;;26.00;46.30;;;;;;4995446;28;20844;-53
2021/04/20 10:07:08;;;;;;;10.30;7.17;;;26.10;46.10;;;;;;4995601;28;20886;-54
2021/04/20 10:09:46;;;;;;;11.37;7.93;;;26.10;46.10;;;;;;4995370;28;20464;-53
2021/04/20 10:12:28;;;;;;;9.13;7.70;;;26.10;45.80;;;;;;4995098;28;20462;-54
2021/04/20 10:15:03;;;;;;;9.90;6.97;;;25.70;46.30;;;;;;4995163;28;20442;-55
2021/04/20 10:17:41;;;;;;;16.87;8.40;;;25.70;46.40;;;;;;4995278;28;20441;-54
2021/04/20 10:20:17;;;;;;;13.57;7.83;;;25.50;47.10;;;;;;4994942;28;20472;-53
2021/04/20 10:22:53;;;;;;;11.53;7.80;;;25.40;47.00;;;;;;4995248;28;20485;-54
2021/04/20 10:25:33;;;;;;;13.60;8.30;;;25.40;46.90;;;;;;4994733;28;20507;-53
2021/04/20 10:28:10;;;;;;;13.97;8.07;;;25.30;47.40;;;;;;4994786;28;20490;-53
2021/04/20 10:30:41;;;;;;;11.20;7.77;;;25.10;47.40;;;;;;4995256;28;20465;-51
2021/04/20 10:33:10;;;;;;;11.27;8.67;;;25.10;47.90;;;;;;4995145;28;20446;-52
2021/04/20 10:35:38;;;;;;;12.27;8.07;;;24.90;47.70;;;;;;4994837;28;21095;-53
2021/04/20 10:38:12;;;;;;;19.20;8.77;;;24.30;47.90;;;;;;4995089;28;20457;-53
2021/04/20 10:40:42;;;;;;;13.00;8.27;;;24.00;49.00;;;;;;4994792;28;20536;-49
2021/04/20 10:43:11;;;;;;;15.73;7.63;;;23.90;49.10;;;;;;4994993;28;20474;-54
2021/04/20 10:45:38;;;;;;;16.23;7.90;;;23.80;49.00;;;;;;4995032;28;20775;-51
2021/04/20 10:48:06;;;;;;;11.30;7.80;;;23.60;49.20;;;;;;4994950;28;20481;-51
2021/04/20 10:50:35;;;;;;;12.63;7.70;;;23.30;49.60;;;;;;4995075;28;20450;-49
2021/04/20 10:53:06;;;;;;;11.43;7.90;;;23.10;51.10;;;;;;4994849;28;20498;-53
2021/04/20 10:55:39;;;;;;;13.97;8.40;;;23.00;51.30;;;;;;4995010;28;20532;-48
2021/04/20 10:58:08;;;;;;;14.10;8.80;;;23.00;50.50;;;;;;4995417;28;20450;-51
2021/04/20 11:00:35;;;;;;;12.73;9.20;;;22.80;50.90;;;;;;4995032;28;20498;-51
2021/04/20 11:03:03;;;;;;;11.97;8.67;;;22.70;51.40;;;;;;4994803;28;20982;-51
2021/04/20 11:05:31;;;;;;;10.33;8.70;;;22.60;52.10;;;;;;4995249;28;20542;-51
2021/04/20 11:07:58;;;;;;;11.67;8.47;;;22.40;52.70;;;;;;4994896;28;20937;-52
2021/04/20 11:10:34;;;;;;;16.83;8.70;;;22.30;53.10;;;;;;4995022;28;20449;-52
2021/04/20 11:13:01;;;;;;;17.40;9.13;;;22.30;53.30;;;;;;4995077;28;20459;-50
2021/04/20 11:15:29;;;;;;;13.00;9.00;;;22.50;52.00;;;;;;4994548;28;20512;-52
2021/04/20 11:18:02;;;;;;;14.57;9.17;;;22.50;52.30;;;;;;4994492;28;20459;-52
2021/04/20 11:20:31;;;;;;;9.93;8.50;;;22.30;52.60;;;;;;4995095;28;20454;-53
2021/04/20 11:23:12;;;;;;;12.17;8.20;;;21.90;53.10;;;;;;4995052;28;20441;-51
2021/04/20 11:25:45;;;;;;;12.77;8.27;;;21.80;54.10;;;;;;4994892;28;20798;-55
2021/04/20 11:28:17;;;;;;;12.40;8.40;;;21.70;54.20;;;;;;4994709;28;20481;-54
2021/04/20 11:30:54;;;;;;;39.13;22.67;;;21.60;54.80;;;;;;4995027;28;20485;-49
2021/04/20 11:33:27;;;;;;;16.93;9.53;;;21.60;54.50;;;;;;4995078;28;20446;-55
2021/04/20 11:35:58;;;;;;;12.73;7.73;;;21.70;55.20;;;;;;4994869;28;20504;-51
2021/04/20 11:38:25;;;;;;;13.90;8.07;;;21.70;55.70;;;;;;4998210;28;20450;-52
2021/04/20 11:40:58;;;;;;;13.83;7.90;;;21.60;54.10;;;;;;4998217;28;20551;-52
2021/04/20 11:43:26;;;;;;;12.87;8.80;;;21.40;55.10;;;;;;4998358;28;20467;-51
2021/04/20 11:45:56;;;;;;;14.40;9.00;;;21.20;55.10;;;;;;4998381;28;20450;-51
2021/04/20 11:48:28;;;;;;;10.70;7.80;;;20.90;54.80;;;;;;4997947;28;20489;-54
2021/04/20 11:50:58;;;;;;;14.10;7.80;;;20.80;55.50;;;;;;4998239;28;20638;-52
2021/04/20 11:53:25;;;;;;;21.60;10.50;;;20.60;55.90;;;;;;4998039;28;20453;-51
2021/04/20 11:55:57;;;;;;;12.03;7.83;;;20.50;56.60;;;;;;4998261;28;20445;-53
2021/04/20 11:58:31;;;;;;;11.63;8.70;;;20.40;56.40;;;;;;4998140;28;20454;-51
2021/04/20 12:01:07;;;;;;;12.60;8.13;;;20.40;56.50;;;;;;4998444;28;20454;-52
2021/04/20 12:03:36;;;;;;;11.60;7.80;;;20.30;56.50;;;;;;4998330;28;20497;-53
2021/04/20 12:06:03;;;;;;;9.27;8.27;;;20.30;57.30;;;;;;4998276;28;20552;-52
2021/04/20 12:08:33;;;;;;;9.13;7.53;;;20.20;57.60;;;;;;4998238;28;20485;-54
2021/04/20 12:11:01;;;;;;;11.77;8.30;;;20.20;56.50;;;;;;4998137;28;20517;-53
2021/04/20 12:13:33;;;;;;;14.27;8.50;;;20.20;56.70;;;;;;4997846;28;20441;-53
2021/04/20 12:16:02;;;;;;;12.90;8.63;;;20.30;56.60;;;;;;4997539;28;20480;-51
2021/04/20 12:18:30;;;;;;;12.40;8.30;;;20.20;55.70;;;;;;4997724;28;20454;-51
2021/04/20 12:21:03;;;;;;;10.30;7.53;;;20.40;55.60;;;;;;4998063;28;20528;-51
2021/04/20 12:23:31;;;;;;;11.87;8.77;;;20.40;56.40;;;;;;4997520;28;20454;-50
2021/04/20 12:26:01;;;;;;;11.77;7.27;;;20.40;55.20;;;;;;4997812;28;20899;-52
2021/04/20 12:28:29;;;;;;;9.00;7.30;;;20.40;55.70;;;;;;4997435;28;20814;-49
2021/04/20 12:30:56;;;;;;;9.70;6.90;;;20.40;55.30;;;;;;4997641;28;20453;-54
2021/04/20 12:33:27;;;;;;;10.77;8.17;;;20.40;55.50;;;;;;4997247;28;20493;-54
2021/04/20 12:35:54;;;;;;;10.47;7.43;;;20.40;55.40;;;;;;4997321;28;20458;-54
2021/04/20 12:38:27;;;;;;;9.63;7.57;;;20.50;55.30;;;;;;4997413;28;20434;-49
2021/04/20 12:40:57;;;;;;;13.50;8.47;;;20.60;55.10;;;;;;4997531;28;20997;-53
2021/04/20 12:43:25;;;;;;;11.80;8.20;;;20.60;54.20;;;;;;4998108;28;20442;-51
2021/04/20 12:45:55;;;;;;;11.10;7.67;;;20.50;53.70;;;;;;4996898;28;20517;-54
2021/04/20 12:48:27;;;;;;;10.53;7.73;;;20.50;54.10;;;;;;4995860;28;20939;-53
2021/04/20 12:50:55;;;;;;;10.73;8.20;;;20.60;55.00;;;;;;4996792;28;20557;-54
2021/04/20 12:53:23;;;;;;;11.10;7.33;;;20.50;54.60;;;;;;4997233;28;20751;-48
2021/04/20 12:55:52;;;;;;;14.97;9.30;;;20.60;54.10;;;;;;4996797;28;20442;-54
2021/04/20 12:58:21;;;;;;;12.33;7.33;;;20.70;54.30;;;;;;4996717;28;20938;-49
2021/04/20 13:00:49;;;;;;;10.47;8.10;;;20.80;54.20;;;;;;4997015;28;20473;-54